Aviation Digital Data Service (ADDS)

Output produced by METARs form (1838 UTC 20 December 2014)
found at http://www.aviationweather.gov/adds/metars/
 
KLNS 201832Z 00000KT 8SM OVC030 01/M07 A3025 RMK AO2 T00061067
KLNS 201753Z 00000KT 9SM OVC029 01/M07 A3025 RMK AO2 SLP249 T00061067 10006 21011 56016
KLNS 201653Z 01004KT 9SM OVC029 00/M07 A3027 RMK AO2 SLP253 T00001067
KLNS 201553Z 04004KT 10SM OVC029 00/M07 A3029 RMK AO2 SLP261 T00001067
KLNS 201453Z 34003KT 10SM OVC029 M01/M07 A3030 RMK AO2 SLP266 T10061072 51016
KLNS 201353Z 32005KT 10SM OVC029 M01/M07 A3029 RMK AO2 SLP261 T10061072
KLNS 201253Z 30004KT 10SM OVC029 M01/M07 A3029 RMK AO2 PRESRR SLP262 T10111072
KLNS 201204Z 33005KT 10SM OVC029 M01/M07 A3026 RMK AO2 T10111072
KLNS 201153Z 01005KT 10SM OVC030 M01/M07 A3025 RMK AO2 SLP249 T10111072 11006 21011 53008
KLNS 201053Z 34006KT 10SM OVC031 M01/M07 A3024 RMK AO2 SLP244 T10061067
KLNS 200953Z 31007KT 10SM OVC031 M01/M06 A3023 RMK AO2 SLP242 T10061061
KLNS 200853Z 31007KT 10SM OVC032 M01/M06 A3023 RMK AO2 SLP240 T10061061 51013
KLNS 200753Z 29008KT 10SM OVC031 M01/M06 A3022 RMK AO2 SLP237 T10061061
KLNS 200653Z 28008KT 10SM OVC034 M01/M06 A3020 RMK AO2 SLP231 T10111061
KLNS 200553Z 28007KT 10SM OVC038 M01/M06 A3019 RMK AO2 SLP227 T10111061 10000 21028 58004
KLNS 200453Z 30005KT 10SM OVC039 M01/M06 A3020 RMK AO2 SLP230 T10111061 400501028
KLNS 200353Z 31007KT 10SM CLR M02/M06 A3021 RMK AO2 SLP233 T10171061
KLNS 200253Z 29005KT 10SM BKN037 M02/M06 A3020 RMK AO2 SLP231 T10171061 51013
KLNS 200153Z 26003KT 10SM OVC038 M01/M07 A3020 RMK AO2 SLP229 T10061067
KLNS 200053Z 32005KT 10SM FEW038 M01/M07 A3018 RMK AO2 SLP222 T10111067
KLNS 192353Z 33005KT 10SM CLR 00/M07 A3017 RMK AO2 SLP219 T00001067 10050 21006 51018
KLNS 192253Z 32008KT 10SM CLR 01/M06 A3016 RMK AO2 SLP215 T00061061
KLNS 192153Z 30007KT 10SM CLR 01/M06 A3013 RMK AO2 SLP207 T00111061
KLNS 192053Z 32011KT 10SM CLR 03/M06 A3011 RMK AO2 SLP200 T00331061 53008
KLNS 191953Z 32011KT 10SM CLR 04/M06 A3008 RMK AO2 SLP190 T00391056
KLNS 191853Z 32012KT 10SM BKN041 04/M06 A3008 RMK AO2 SLP190 T00391056
KLNS 191753Z 28014KT 10SM BKN038 03/M05 A3009 RMK AO2 SLP192 T00331050 10050 20011 55007
KLNS 191653Z 33011G17KT 10SM OVC036 03/M06 A3008 RMK AO2 SLP191 T00331056
KLNS 191553Z 33014KT 10SM OVC035 03/M06 A3010 RMK AO2 SLP195 T00281056
KLNS 191453Z 31009KT 10SM OVC035 02/M04 A3011 RMK AO2 SLP199 T00221044 52014
KLNS 191353Z 29011KT 10SM OVC033 02/M04 A3010 RMK AO2 SLP195 T00171044
KLNS 191253Z 29009KT 10SM OVC031 01/M04 A3008 RMK AO2 SLP189 T00111044
KLNS 191153Z 29011KT 10SM OVC031 01/M04 A3007 RMK AO2 SLP185 T00111044 10011 20006 53006
KLNS 191053Z AUTO 29009KT 10SM OVC032 01/M04 A3005 RMK AO2 SLP179 T00061044
KLNS 190953Z AUTO 28010KT 10SM OVC035 01/M04 A3004 RMK AO2 SLP177 T00061044
KLNS 190933Z AUTO 28011KT 10SM OVC033 01/M04 A3004 RMK AO2 T00061044
KLNS 190853Z AUTO 28008KT 10SM OVC029 01/M04 A3005 RMK AO2 SLP179 T00061044 50003
KLNS 190816Z AUTO 28009KT 10SM OVC031 01/M04 A3005 RMK AO2 T00061044
KLNS 190753Z AUTO 29008KT 10SM OVC029 01/M04 A3005 RMK AO2 SLP180 T00111044
KLNS 190653Z AUTO 28012KT 10SM OVC031 01/M04 A3004 RMK AO2 SLP177 T00111044